METAR Data
IDs: Format: Raw Decoded Include TAF

Data at: 1248 UTC 07 Jul 2020

KLUX 071035Z AUTO 08003KT 5SM BR OVC003 22/22 A3003 RMK AO2
KLUX 070735Z AUTO 08003KT 10SM OVC003 22/22 A3003 RMK AO2
KLUX 070335Z AUTO 00000KT 10SM BKN065 22/22 A3005 RMK AO2
KLUX 070315Z AUTO 00000KT 10SM OVC055 22/22 A3006 RMK AO2
KLUX 070155Z AUTO 00000KT 7SM SCT003 BKN049 22/22 A3007 RMK AO2
KLUX 070135Z AUTO 00000KT 7SM SCT003 SCT049 22/22 A3007 RMK AO2
KLUX 070115Z AUTO 00000KT 7SM CLR 22/22 A3007 RMK AO2
KLUX 070055Z AUTO 00000KT 5SM -RA SCT005 SCT008 SCT043 22/22 A3007 RMK AO2 P0005
KLUX 062335Z AUTO 00000KT 10SM -RA SCT014 BKN025 OVC033 22/22 A3006 RMK AO2
KLUX 062315Z AUTO 14003KT 10SM -DZ SCT030 SCT034 BKN047 22/22 A3007 RMK AO2 LTG DSNT W
KLUX 062255Z AUTO 00000KT 10SM -RA SCT060 22/22 A3006 RMK AO2 P0004
KLUX 062235Z AUTO 00000KT 7SM CLR 22/22 A3005 RMK AO2 LTG DSNT W P0004
KLUX 062155Z AUTO 00000KT 4SM +RA SCT028 BKN034 OVC041 22/22 A3005 RMK AO2 LTG DSNT W AND NW P0054
KLUX 062135Z AUTO 12006KT 2SM +TSRA SCT009 SCT021 OVC030 22/22 A3007 RMK AO2 LTG DSNT ALQDS P0044
KLUX 062115Z AUTO 13007G21KT 1 1/2SM +TSRA SCT009 SCT017 BKN022 23/22 A3006 RMK AO2 LTG DSNT ALQDS P0021
KLUX 062055Z AUTO 06008G15KT 040V100 10SM VCTS CLR 27/22 A3003 RMK AO2 LTG DSNT S AND SW
KLUX 062035Z AUTO 04007KT 10SM SCT025 SCT031 SCT037 29/23 A3003 RMK AO2 LTG DSNT E AND W
KLUX 062015Z AUTO 11004KT 10SM CLR 29/20 A3003 RMK AO2 LTG DSNT E
KLUX 061955Z AUTO 00000KT 7SM CLR 29/20 A3003 RMK AO2 LTG DSNT E
KLUX 061935Z AUTO 18003KT 7SM CLR 28/21 A3003 RMK AO2 LTG DSNT SE
KLUX 061915Z AUTO 14004KT 7SM CLR 29/21 A3003 RMK AO2
KLUX 061855Z AUTO 14005KT 7SM CLR 28/21 A3004 RMK AO2 LTG DSNT E
KLUX 061835Z AUTO 00000KT 7SM CLR 27/21 A3005 RMK AO2 LTG DSNT E
KLUX 061815Z AUTO 00000KT 10SM CLR 26/21 A3005 RMK AO2 LTG DSNT NE
KLUX 061755Z AUTO 16004KT 7SM CLR 27/21 A3006 RMK AO2 LTG DSNT N AND NE
KLUX 061735Z AUTO 14006KT 7SM CLR 27/21 A3006 RMK AO2 LTG DSNT N THRU E
KLUX 061715Z AUTO 12008KT 7SM CLR 27/21 A3007 RMK AO2 LTG DSNT N AND E
KLUX 061655Z AUTO 15005KT 7SM CLR 27/22 A3008 RMK AO2 LTG DSNT NW
KLUX 061635Z AUTO 15006KT 10SM SCT050 SCT065 26/23 A3008 RMK AO2 LTG DSNT E
KLUX 061615Z AUTO 00000KT 7SM SCT030 SCT038 BKN048 25/23 A3008 RMK AO2 LTG DSNT NW
KLUX 061555Z AUTO 17006KT 7SM RA SCT030 SCT036 BKN049 25/22 A3009 RMK AO2
KLUX 061535Z AUTO 14006KT 10SM -DZ SCT017 SCT029 BKN043 26/23 A3008 RMK AO2
KLUX 061515Z AUTO 12006KT 7SM SCT015 BKN046 26/22 A3008 RMK AO2
KLUX 061455Z AUTO 13006KT 10SM BKN013 BKN030 BKN042 26/22 A3008 RMK AO2
KLUX 061435Z AUTO 09004KT 7SM SCT013 BKN025 BKN030 25/23 A3008 RMK AO2
KLUX 061415Z AUTO 09003KT 10SM BKN011 BKN025 OVC039 25/22 A3008 RMK AO2
KLUX 061335Z AUTO 09003KT 7SM SCT030 SCT041 SCT055 25/22 A3007 RMK AO2
KLUX 061315Z AUTO 00000KT 7SM SCT012 BKN025 OVC055 23/21 A3007 RMK AO2
KLUX 061255Z AUTO 00000KT 10SM SCT014 BKN021 OVC026 23/21 A3007 RMK AO2
KLUX 061235Z AUTO 00000KT 7SM OVC016 22/21 A3007 RMK AO2
KLUX 061215Z AUTO 00000KT 7SM SCT014 22/21 A3006 RMK AO2
KLUX 061155Z AUTO 06003KT 5SM BR CLR 21/20 A3006 RMK AO2
KLUX 061135Z AUTO 00000KT 7SM CLR 21/20 A3005 RMK AO2
KLUX 061115Z AUTO 00000KT 7SM CLR 20/20 A3005 RMK AO2
KLUX 061055Z AUTO 02003KT 4SM BR CLR 18/18 A3004 RMK AO2
KLUX 061035Z AUTO 01003KT 5SM BR CLR 19/18 A3004 RMK AO2
KLUX 061015Z AUTO 03004KT 5SM BR CLR 18/18 A3003 RMK AO2
KLUX 060955Z AUTO 03003KT 5SM BR CLR 19/18 A3003 RMK AO2
KLUX 060935Z AUTO 01003KT 4SM BR CLR 19/18 A3002 RMK AO2
KLUX 060915Z AUTO 00000KT 7SM CLR 19/18 A3001 RMK AO2
KLUX 060855Z AUTO 00000KT 7SM CLR 20/19 A3001 RMK AO2
KLUX 060835Z AUTO 00000KT 7SM CLR 20/19 A3001 RMK AO2
KLUX 060815Z AUTO 00000KT 7SM CLR 20/19 A3000 RMK AO2
KLUX 060755Z AUTO 00000KT 10SM CLR 22/20 A3001 RMK AO2
KLUX 060735Z AUTO 14003KT 10SM CLR 22/20 A3001 RMK AO2
KLUX 060715Z AUTO 00000KT 10SM CLR 22/20 A3002 RMK AO2
KLUX 060655Z AUTO 00000KT 7SM CLR 23/20 A3002 RMK AO2
KLUX 060635Z AUTO 00000KT 10SM CLR 23/20 A3002 RMK AO2
KLUX 060615Z AUTO 00000KT 10SM CLR 23/20 A3002 RMK AO2
KLUX 060555Z AUTO 15004KT 10SM CLR 23/19 A3003 RMK AO2
KLUX 060535Z AUTO 15004KT 7SM CLR 24/19 A3003 RMK AO2
KLUX 060515Z AUTO 15003KT 10SM CLR 24/19 A3003 RMK AO2
KLUX 060435Z AUTO 15004KT 10SM CLR 25/19 A3003 RMK AO2
KLUX 060415Z AUTO 14005KT 10SM CLR 25/19 A3003 RMK AO2
KLUX 060355Z AUTO 13003KT 10SM CLR 25/19 A3002 RMK AO2
KLUX 060335Z AUTO 12004KT 10SM CLR 25/18 A3002 RMK AO2
KLUX 060315Z AUTO 00000KT 10SM CLR 26/18 A3002 RMK AO2
KLUX 060255Z AUTO 12003KT 10SM CLR 26/18 A3002 RMK AO2
KLUX 060235Z AUTO 14004KT 10SM CLR 26/18 A3001 RMK AO2
KLUX 060215Z AUTO 13004KT 10SM CLR 26/17 A3000 RMK AO2
KLUX 060155Z AUTO 13004KT 10SM CLR 26/16 A3000 RMK AO2
KLUX 060135Z AUTO 13004KT 10SM CLR 27/16 A2999 RMK AO2
KLUX 060115Z AUTO 13004KT 10SM CLR 27/16 A2998 RMK AO2
KLUX 060055Z AUTO 13003KT 10SM CLR 28/16 A2997 RMK AO2